createdAt,value
2023-04-23T00:02:47.352Z,62.49
2023-04-23T00:07:56.200Z,64.17
2023-04-23T00:13:04.675Z,64.25
2023-04-23T00:18:12.168Z,63.82
2023-04-23T00:23:19.520Z,63.27
2023-04-23T00:28:27.446Z,62.99
2023-04-23T00:33:35.233Z,62.94
2023-04-23T00:38:42.751Z,62.75
2023-04-23T00:43:53.363Z,62.53
2023-04-23T00:49:01.884Z,62.45
2023-04-23T00:54:10.384Z,62.32
2023-04-23T00:59:18.417Z,62.05
2023-04-23T01:04:30.004Z,62.11
2023-04-23T01:09:37.509Z,62.28
2023-04-23T01:14:45.707Z,62.38
2023-04-23T01:19:53.344Z,62.38
2023-04-23T01:25:01.471Z,62.33
2023-04-23T01:30:11.364Z,62.46
2023-04-23T01:35:19.062Z,62.57
2023-04-23T01:40:26.758Z,62.53
2023-04-23T01:45:35.441Z,62.57
2023-04-23T01:50:44.500Z,62.67
2023-04-23T01:55:53.456Z,62.76
2023-04-23T02:01:01.050Z,62.66
2023-04-23T02:06:09.372Z,62.61
2023-04-23T02:11:16.855Z,62.37
2023-04-23T02:16:25.156Z,62.15
2023-04-23T02:21:33.130Z,62.20
2023-04-23T02:26:40.952Z,62.22
2023-04-23T02:31:48.408Z,62.22
2023-04-23T02:36:56.491Z,62.14
2023-04-23T02:42:04.014Z,62.03
2023-04-23T02:47:11.830Z,61.96
2023-04-23T02:52:19.799Z,61.85
2023-04-23T02:57:27.645Z,61.71
2023-04-23T03:02:35.423Z,61.72
2023-04-23T03:07:43.924Z,61.83
2023-04-23T03:12:51.799Z,61.82
2023-04-23T03:17:59.881Z,61.84
2023-04-23T03:23:08.038Z,61.90
2023-04-23T03:28:16.422Z,62.03
2023-04-23T03:33:25.018Z,62.00
2023-04-23T03:38:32.849Z,62.08
2023-04-23T03:43:41.169Z,62.30
2023-04-23T03:49:12.134Z,62.47
2023-04-23T03:54:20.114Z,62.77
2023-04-23T03:59:43.462Z,63.33
2023-04-23T04:04:52.308Z,63.92
2023-04-23T04:10:00.216Z,64.57
2023-04-23T04:15:09.170Z,65.17
2023-04-23T04:20:17.272Z,65.58
2023-04-23T04:25:25.083Z,66.01
2023-04-23T04:30:32.405Z,66.42
2023-04-23T04:35:39.836Z,66.87
2023-04-23T04:40:49.345Z,67.50
2023-04-23T04:45:59.790Z,67.99
2023-04-23T04:51:08.495Z,68.06
2023-04-23T04:56:15.979Z,67.87
2023-04-23T05:01:25.062Z,67.47
2023-04-23T05:06:33.448Z,67.28
2023-04-23T05:11:41.867Z,67.14
2023-04-23T05:16:50.054Z,66.95
2023-04-23T05:21:59.113Z,66.63
2023-04-23T05:27:07.036Z,66.47
2023-04-23T05:32:15.257Z,66.27
2023-04-23T05:37:23.074Z,66.00
2023-04-23T05:42:30.876Z,65.71
2023-04-23T05:47:38.466Z,65.40
2023-04-23T05:52:46.456Z,65.10
2023-04-23T05:57:54.031Z,64.72
2023-04-23T06:03:01.659Z,64.28
2023-04-23T06:08:09.976Z,63.79
2023-04-23T06:13:18.408Z,63.26
2023-04-23T06:18:28.013Z,62.68
2023-04-23T06:23:37.357Z,62.06
2023-04-23T06:28:45.538Z,61.34
2023-04-23T06:34:05.844Z,60.69
2023-04-23T06:39:13.597Z,59.62
2023-04-23T06:44:21.393Z,59.52
2023-04-23T06:49:37.895Z,59.62
2023-04-23T06:54:45.890Z,59.21
2023-04-23T06:59:53.357Z,58.59
2023-04-23T07:05:02.215Z,57.67
2023-04-23T07:10:13.569Z,56.45
2023-04-23T07:15:22.901Z,55.52
2023-04-23T07:20:30.740Z,54.10
2023-04-23T07:25:39.891Z,53.11
2023-04-23T07:30:47.144Z,51.72
2023-04-23T07:35:54.524Z,50.41
2023-04-23T07:41:01.870Z,49.50
2023-04-23T07:46:10.184Z,48.25
2023-04-23T07:51:17.893Z,47.88
2023-04-23T07:56:26.462Z,47.41
2023-04-23T08:01:34.155Z,47.16
2023-04-23T08:06:42.212Z,46.28
2023-04-23T08:11:49.850Z,45.95
2023-04-23T08:16:57.250Z,46.02
2023-04-23T08:22:04.884Z,45.67
2023-04-23T08:27:12.438Z,44.72
2023-04-23T08:32:19.755Z,44.39
2023-04-23T08:37:31.326Z,43.99
2023-04-23T08:42:44.544Z,43.25
2023-04-23T08:47:52.493Z,42.92
2023-04-23T08:53:00.377Z,42.25
2023-04-23T08:58:08.728Z,42.06
2023-04-23T09:03:17.131Z,42.14
2023-04-23T09:08:25.438Z,41.93
2023-04-23T09:13:33.995Z,41.85
2023-04-23T09:18:41.604Z,41.50
2023-04-23T09:23:53.808Z,41.28
2023-04-23T09:29:01.093Z,40.41
2023-04-23T09:34:09.247Z,40.56
2023-04-23T09:39:20.720Z,40.12
2023-04-23T09:44:30.001Z,40.20
2023-04-23T09:49:46.894Z,40.01
2023-04-23T09:54:54.585Z,40.22
2023-04-23T10:00:15.344Z,39.97
2023-04-23T10:05:29.390Z,40.19
2023-04-23T10:10:57.486Z,40.49
2023-04-23T10:16:22.251Z,41.05
2023-04-23T10:21:42.964Z,40.42
2023-04-23T10:27:03.207Z,40.35
2023-04-23T10:32:10.728Z,40.02
2023-04-23T10:37:19.851Z,39.70
2023-04-23T10:42:28.340Z,39.61
2023-04-23T10:47:35.898Z,39.43
2023-04-23T10:52:47.288Z,39.31
2023-04-23T10:58:04.370Z,39.12
2023-04-23T11:03:31.809Z,39.26
2023-04-23T11:08:53.476Z,39.07
2023-04-23T11:14:14.621Z,38.98
2023-04-23T11:19:22.420Z,38.91
2023-04-23T11:24:31.500Z,38.38
2023-04-23T11:29:41.499Z,38.62
2023-04-23T11:34:51.094Z,38.42
2023-04-23T11:39:59.556Z,38.63
2023-04-23T11:45:08.059Z,38.33
2023-04-23T11:50:21.518Z,37.88
2023-04-23T11:55:30.838Z,37.72
2023-04-23T12:00:38.166Z,37.30
2023-04-23T12:05:48.445Z,36.84
2023-04-23T12:10:57.115Z,37.15
2023-04-23T12:16:05.831Z,36.69
2023-04-23T12:21:14.133Z,36.58
2023-04-23T12:26:25.359Z,36.31
2023-04-23T12:31:33.662Z,36.63
2023-04-23T12:36:46.166Z,36.45
2023-04-23T12:41:54.828Z,36.45
2023-04-23T12:47:05.256Z,36.54
2023-04-23T12:52:14.146Z,36.51
2023-04-23T12:57:23.618Z,36.26
2023-04-23T13:02:31.996Z,36.14
2023-04-23T13:07:39.860Z,35.91
2023-04-23T13:12:47.537Z,35.78
2023-04-23T13:17:55.259Z,35.17
2023-04-23T13:23:03.533Z,34.61
2023-04-23T13:28:11.201Z,34.74
2023-04-23T13:33:19.635Z,35.19
2023-04-23T13:38:27.949Z,35.00
2023-04-23T13:43:35.807Z,34.65
2023-04-23T13:48:43.393Z,34.77
2023-04-23T13:53:51.156Z,34.86
2023-04-23T13:59:18.239Z,34.59
2023-04-23T14:04:27.736Z,34.38
2023-04-23T14:09:35.511Z,34.24
2023-04-23T14:14:43.478Z,34.43
2023-04-23T14:19:50.947Z,34.32
2023-04-23T14:25:06.887Z,34.38
2023-04-23T14:30:18.944Z,34.40
2023-04-23T14:35:36.035Z,34.40
2023-04-23T14:40:49.848Z,34.44
2023-04-23T14:45:57.190Z,34.02
2023-04-23T14:51:05.049Z,33.51
2023-04-23T14:56:12.706Z,33.40
2023-04-23T15:01:20.419Z,32.85
2023-04-23T15:06:28.404Z,32.47
2023-04-23T15:11:39.291Z,32.56
2023-04-23T15:16:49.276Z,32.10
2023-04-23T15:21:57.499Z,31.89
2023-04-23T15:27:05.070Z,32.20
2023-04-23T15:32:13.077Z,31.82
2023-04-23T15:37:21.554Z,31.80
2023-04-23T15:42:29.352Z,31.86
2023-04-23T15:47:40.717Z,31.72
2023-04-23T15:52:49.870Z,31.51
2023-04-23T15:57:59.445Z,31.59
2023-04-23T16:03:08.313Z,31.70
2023-04-23T16:08:17.306Z,32.10
2023-04-23T16:13:27.311Z,31.73
2023-04-23T16:18:34.886Z,31.94
2023-04-23T16:23:42.407Z,31.82
2023-04-23T16:28:52.415Z,31.86
2023-04-23T16:34:13.097Z,31.87
2023-04-23T16:39:21.016Z,31.89
2023-04-23T16:44:29.342Z,31.88
2023-04-23T16:49:36.964Z,32.16
2023-04-23T16:54:46.054Z,32.20
2023-04-23T16:59:54.490Z,32.36
2023-04-23T17:05:02.418Z,32.32
2023-04-23T17:10:12.788Z,32.57
2023-04-23T17:15:21.033Z,32.83
2023-04-23T17:20:29.441Z,32.96
2023-04-23T17:25:37.038Z,33.18
2023-04-23T17:30:45.818Z,33.56
2023-04-23T17:35:55.719Z,33.90
2023-04-23T17:41:03.824Z,34.19
2023-04-23T17:46:11.145Z,34.53
2023-04-23T17:51:18.644Z,34.81
2023-04-23T17:56:27.454Z,35.14
2023-04-23T18:01:35.047Z,35.51
2023-04-23T18:06:42.636Z,35.91
2023-04-23T18:11:50.002Z,36.26
2023-04-23T18:16:58.062Z,36.49
2023-04-23T18:22:05.629Z,36.42
2023-04-23T18:27:12.935Z,36.50
2023-04-23T18:32:31.250Z,36.48
2023-04-23T18:37:49.293Z,36.49
2023-04-23T18:42:56.847Z,36.56
2023-04-23T18:48:37.760Z,36.65
2023-04-23T18:53:45.132Z,36.79
2023-04-23T18:58:52.558Z,37.07
2023-04-23T19:04:00.459Z,37.30
2023-04-23T19:09:08.279Z,37.46
2023-04-23T19:14:16.197Z,37.64
2023-04-23T19:19:24.790Z,37.80
2023-04-23T19:24:33.269Z,37.95
2023-04-23T19:29:41.432Z,38.12
2023-04-23T19:34:48.956Z,38.26
2023-04-23T19:39:56.483Z,38.40
2023-04-23T19:45:04.294Z,38.56
2023-04-23T19:50:14.252Z,38.72
2023-04-23T19:55:27.711Z,38.84
2023-04-23T20:00:37.966Z,38.97
2023-04-23T20:05:46.583Z,39.15
2023-04-23T20:10:54.102Z,39.30
2023-04-23T20:16:01.631Z,39.46
2023-04-23T20:21:09.669Z,39.62
2023-04-23T20:26:17.169Z,39.77
2023-04-23T20:31:24.840Z,39.93
2023-04-23T20:36:33.808Z,40.13
2023-04-23T20:41:41.802Z,40.28
2023-04-23T20:46:49.867Z,40.43
2023-04-23T20:51:57.285Z,40.57
2023-04-23T20:57:05.094Z,40.76
2023-04-23T21:02:15.718Z,40.90
2023-04-23T21:07:23.601Z,41.06
2023-04-23T21:12:31.666Z,41.18
2023-04-23T21:17:39.032Z,41.32
2023-04-23T21:22:46.681Z,41.39
2023-04-23T21:27:54.743Z,41.51
2023-04-23T21:33:02.622Z,41.62
2023-04-23T21:38:10.434Z,41.75
2023-04-23T21:43:18.276Z,41.84
2023-04-23T21:48:25.691Z,42.15
2023-04-23T21:53:33.000Z,42.45
2023-04-23T21:58:40.584Z,42.92
2023-04-23T22:03:48.432Z,43.08
2023-04-23T22:08:56.609Z,43.22
2023-04-23T22:14:04.387Z,43.36
2023-04-23T22:19:12.544Z,43.51
2023-04-23T22:24:20.511Z,43.90
2023-04-23T22:29:28.080Z,44.22
2023-04-23T22:34:35.523Z,44.58
2023-04-23T22:39:43.265Z,45.04
2023-04-23T22:44:51.210Z,45.43
2023-04-23T22:49:59.323Z,45.78
2023-04-23T22:55:07.968Z,46.10
2023-04-23T23:00:17.568Z,46.50
2023-04-23T23:05:25.204Z,46.82
2023-04-23T23:10:32.924Z,47.13
2023-04-23T23:15:40.464Z,47.39
2023-04-23T23:20:48.078Z,47.46
2023-04-23T23:25:56.726Z,47.86
2023-04-23T23:31:05.749Z,48.33
2023-04-23T23:36:13.465Z,48.60
2023-04-23T23:41:21.679Z,48.80
2023-04-23T23:46:29.456Z,48.92
2023-04-23T23:51:36.922Z,48.94
2023-04-23T23:56:44.630Z,49.34
